Latest Weather Observations for Stenhouse Bay

IDS60801

Issued at 8:31 am CDT Friday 31 March 2017 (issued every 30 minutes, with the page automatically refreshed every 10 minutes)

About weather observations | Map of weather stations | Latest weather observations for SA | Other Formats
Station Details ID: 022049 Name: STENHOUSE BAY Lat: -35.28 Lon: 136.94 Height: 42.0 m
Data from the previous 72 hours. | See also: Recent months at Stenhouse Bay
Date/Time
CDT
Temp
°C
App
Temp
°C
Dew
Point
°C
Rel
Hum
%
Delta-T
°C
Wind Press
QNH
hPa
Press
MSL
hPa
Rain since
9am
mm
Dir  Spd
km/h
Gust
km/h
Spd
kts
Gust
kts
31/08:00am 13.1 11.3 5.3 59 3.6 N 4 6 2 3 1024.4 1024.3 0.0
31/07:30am 13.1 10.9 5.3 59 3.6 NNW 6 7 3 4 1024.4 1024.3 0.0
31/07:00am 13.0 11.2 5.4 60 3.6 NNW 4 7 2 4 1024.1 1024.0 0.0
31/06:30am 13.2 11.4 5.4 59 3.6 N 4 6 2 3 1023.9 1023.8 0.0
31/06:00am 13.3 11.5 5.5 59 3.6 N 4 6 2 3 1023.9 1023.8 0.0
31/05:30am 13.5 11.6 4.9 56 4.0 NW 4 4 2 2 1023.8 1023.7 0.0
31/05:00am 13.6 11.3 5.0 56 4.0 WNW 6 7 3 4 1023.8 1023.7 0.0
31/04:30am 13.8 12.0 5.2 56 4.0 W 4 6 2 3 1023.6 1023.5 0.0
31/04:00am 14.1 12.6 5.2 55 4.2 W 2 4 1 2 1023.6 1023.5 0.0
31/03:30am 14.1 12.3 5.2 55 4.2 W 4 7 2 4 1023.8 1023.7 0.0
31/03:00am 14.1 11.9 5.2 55 4.2 WSW 6 7 3 4 1023.9 1023.8 0.0
31/02:30am 14.1 11.8 5.5 56 4.0 SSE 7 11 4 6 1023.8 1023.7 0.0
31/02:00am 14.4 11.8 6.0 57 4.0 S 9 13 5 7 1023.9 1023.8 0.0
31/01:30am 14.7 12.1 6.0 56 4.2 S 9 15 5 8 1024.3 1024.2 0.0
31/01:00am 14.5 11.4 5.6 55 4.2 SSE 11 17 6 9 1024.5 1024.4 0.0
31/12:30am 14.5 11.1 6.1 57 4.0 SSE 13 17 7 9 1024.7 1024.6 0.0
31/12:00am 14.4 10.7 6.3 58 3.9 SSE 15 22 8 12 1024.9 1024.8 0.0
 
Date/Time
CDT
Temp
°C
App
Temp
°C
Dew
Point
°C
Rel
Hum
%
Delta-T
°C
Wind Press
QNH
hPa
Press
MSL
hPa
Rain since
9am
mm
Dir  Spd
km/h
Gust
km/h
Spd
kts
Gust
kts
30/11:30pm 14.4 10.4 6.5 59 3.8 SSE 17 24 9 13 1024.8 1024.7 0.0
30/11:00pm 14.4 9.7 6.0 57 4.0 SSE 20 28 11 15 1025.0 1024.9 0.0
30/10:30pm 14.6 9.9 5.9 56 4.1 SSE 20 24 11 13 1025.2 1025.1 0.0
30/10:00pm 14.8 10.3 6.9 59 3.9 SSE 20 28 11 15 1025.0 1024.9 0.0
30/09:30pm 14.8 9.6 7.4 61 3.6 SSE 24 28 13 15 1025.0 1024.9 0.0
30/09:00pm 14.8 9.6 7.1 60 3.8 SSE 24 30 13 16 1024.9 1024.8 0.0
30/08:30pm 15.0 10.1 6.8 58 4.0 S 22 30 12 16 1024.7 1024.6 0.0
30/08:00pm 15.2 9.5 6.7 57 4.2 S 26 33 14 18 1024.6 1024.5 0.0
30/07:30pm 15.3 9.9 6.3 55 4.3 S 24 33 13 18 1024.5 1024.4 0.0
30/07:00pm 15.7 10.3 6.2 53 4.6 SSW 24 32 13 17 1024.3 1024.2 0.0
30/06:30pm 16.3 11.7 6.7 53 4.7 SSW 20 28 11 15 1024.4 1024.3 0.0
30/06:00pm 16.8 12.3 6.9 52 4.9 SSW 20 32 11 17 1024.3 1024.2 0.0
30/05:30pm 17.3 12.8 7.1 51 5.1 SSW 20 32 11 17 1024.2 1024.1 0.0
30/05:00pm 17.4 12.6 7.2 51 5.1 SSW 22 33 12 18 1024.2 1024.1 0.0
30/04:30pm 17.9 13.2 7.9 52 5.1 SSW 22 33 12 18 1024.2 1024.1 0.0
30/04:00pm 18.1 13.9 8.1 52 5.1 SSW 20 28 11 15 1024.0 1023.9 0.0
30/03:30pm 18.2 13.9 7.9 51 5.2 SW 20 32 11 17 1024.0 1023.9 0.0
30/03:00pm 18.9 14.7 7.4 47 5.8 SSW 19 28 10 15 1024.1 1024.0 0.0
30/02:30pm 18.1 14.7 7.5 50 5.3 SSW 15 22 8 12 1024.3 1024.2 0.0
30/02:00pm 16.3 10.9 6.2 51 4.9 SSW 24 35 13 19 1024.6 1024.5 0.0
30/01:30pm 18.5 14.3 8.2 51 5.3 SSW 20 28 11 15 1024.6 1024.5 0.0
30/01:00pm 18.4 14.5 7.2 48 5.7 SSW 17 26 9 14 1024.8 1024.7 0.0
30/12:30pm 17.6 14.3 7.9 53 4.9 SSW 15 24 8 13 1024.9 1024.8 0.0
30/12:00pm 16.9 12.7 7.3 53 4.8 SSW 19 24 10 13 1024.7 1024.6 0.0
30/11:30am 17.1 12.7 7.2 52 4.9 S 20 30 11 16 1024.4 1024.3 0.0
30/11:00am 17.0 11.8 7.1 52 4.9 S 24 32 13 17 1024.1 1024.0 0.0
30/10:30am 16.6 10.7 7.5 55 4.5 S 28 35 15 19 1024.0 1023.9 0.0
30/10:00am 16.0 10.3 6.7 54 4.6 S 26 35 14 19 1024.0 1023.9 0.0
30/09:30am 14.9 8.4 6.5 57 4.1 S 30 37 16 20 1023.6 1023.5 0.0
30/09:00am 14.9 8.5 7.0 59 3.9 S 30 39 16 21 1023.3 1023.2 3.4
30/08:30am 14.5 8.0 6.6 59 3.8 S 30 39 16 21 1022.7 1022.6 3.4
30/08:00am 14.1 7.5 7.9 66 3.1 S 32 41 17 22 1022.1 1022.0 3.4
30/07:30am 14.1 7.2 6.5 60 3.7 S 32 43 17 23 1021.6 1021.5 3.4
30/07:00am 14.2 7.4 7.0 62 3.5 S 32 43 17 23 1021.2 1021.1 3.4
30/06:30am 14.1 8.2 7.4 64 3.3 SSW 28 37 15 20 1021.0 1020.9 3.4
30/06:00am 13.9 8.8 7.7 66 3.1 SSW 24 35 13 19 1020.8 1020.7 3.4
30/05:30am 14.1 7.3 6.7 61 3.6 SSW 32 41 17 22 1020.5 1020.4 3.4
30/05:00am 14.4 7.5 6.5 59 3.8 SSW 32 44 17 24 1020.0 1019.9 3.4
30/04:30am 14.6 8.3 7.2 61 3.6 SSW 30 46 16 25 1019.6 1019.5 3.4
30/04:00am 14.6 8.4 6.2 57 4.0 SW 28 43 15 23 1019.4 1019.3 3.4
30/03:30am 14.4 9.3 7.5 63 3.4 SW 24 41 13 22 1019.4 1019.3 3.4
30/03:00am 14.6 8.8 6.4 58 4.0 SW 26 37 14 20 1019.3 1019.2 3.4
30/02:30am 14.3 8.5 6.2 58 3.9 SW 26 37 14 20 1019.3 1019.2 3.4
30/02:08am 14.4 8.3 6.7 60 3.7 SW 28 46 15 25 1019.2 1019.1 3.4
30/02:00am 14.2 6.8 6.6 60 3.7 SW 35 46 19 25 1019.1 1019.0 3.4
30/01:30am 14.8 8.4 7.1 60 3.8 SW 30 44 16 24 1019.0 1018.9 3.4
30/01:00am 14.1 7.8 7.6 65 3.2 SW 30 44 16 24 1019.0 1018.9 3.4
30/12:36am 12.9 5.9 6.7 66 3.0 SW 33 52 18 28 1018.9 1018.8 3.4
30/12:30am 13.7 6.4 7.0 64 3.2 SW 35 52 19 28 1018.8 1018.7 3.4
30/12:00am 14.5 6.9 5.8 56 4.1 SW 35 46 19 25 1018.6 1018.5 3.4
 
Date/Time
CDT
Temp
°C
App
Temp
°C
Dew
Point
°C
Rel
Hum
%
Delta-T
°C
Wind Press
QNH
hPa
Press
MSL
hPa
Rain since
9am
mm
Dir  Spd
km/h
Gust
km/h
Spd
kts
Gust
kts
29/11:44pm 14.7 8.2 6.3 57 4.1 SW 30 48 16 26 1018.5 1018.4 3.4
29/11:30pm 14.1 7.8 7.2 63 3.4 SSW 30 44 16 24 1018.5 1018.4 3.4
29/11:10pm 14.3 8.4 7.6 64 3.3 SSW 28 46 15 25 1018.4 1018.3 3.4
29/11:00pm 14.3 7.7 7.6 64 3.3 SSW 32 44 17 24 1018.4 1018.3 3.4
29/10:30pm 14.4 8.0 7.0 61 3.6 SW 30 43 16 23 1018.1 1018.0 3.4
29/10:11pm 14.1 8.1 7.2 63 3.4 SW 28 48 15 26 1017.9 1017.8 3.4
29/10:00pm 14.4 8.3 6.7 60 3.7 SW 28 43 15 23 1017.8 1017.7 3.2
29/09:30pm 13.6 7.5 8.4 71 2.6 SW 30 46 16 25 1017.6 1017.5 3.2
29/09:20pm 13.8 7.7 8.2 69 2.8 SSW 30 48 16 26 1017.4 1017.3 3.2
29/09:00pm 14.2 7.7 6.6 60 3.7 SW 30 43 16 23 1017.0 1016.9 3.2
29/08:34pm 14.3 8.3 7.1 62 3.5 SW 28 48 15 26 1016.4 1016.3 3.2
29/08:30pm 14.1 8.1 6.9 62 3.5 SW 28 43 15 23 1016.2 1016.1 3.2
29/08:00pm 14.0 8.0 8.6 70 2.7 SW 30 48 16 26 1015.9 1015.8 3.2
29/07:32pm 14.0 6.8 6.1 59 3.8 WSW 33 57 18 31 1015.9 1015.8 2.4
29/07:30pm 14.3 7.2 6.6 60 3.7 SW 33 44 18 24 1015.7 1015.6 2.4
29/07:00pm 12.3 7.4 8.6 78 1.8 W 24 48 13 26 1015.4 1015.3 2.4
29/06:47pm 15.9 9.1 7.1 56 4.4 SW 32 63 17 34 1014.9 1014.8 1.6
29/06:30pm 15.6 8.9 7.4 58 4.1 SW 32 44 17 24 1014.7 1014.6 1.6
29/06:10pm 16.0 9.2 7.7 58 4.2 SW 33 61 18 33 1014.0 1013.9 1.6
29/06:00pm 16.2 9.3 7.4 56 4.4 SW 33 46 18 25 1013.9 1013.8 1.6
29/05:30pm 15.5 8.1 8.3 62 3.6 SW 37 57 20 31 1013.6 1013.5 1.4
29/05:00pm 17.1 9.9 7.7 54 4.7 SW 35 46 19 25 1012.9 1012.8 1.4
29/04:30pm 17.5 10.6 8.9 57 4.5 SW 35 48 19 26 1012.7 1012.6 1.4
29/04:29pm 17.5 10.5 8.6 56 4.6 SW 35 54 19 29 1012.7 1012.6 1.4
29/04:00pm 16.7 9.9 9.4 62 3.8 SW 35 54 19 29 1012.6 1012.5 1.4
29/03:30pm 16.0 10.7 11.2 73 2.6 SW 30 56 16 30 1012.2 1012.0 1.4
29/03:03pm 15.3 9.0 12.2 82 1.7 SW 37 61 20 33 1012.3 1012.1 1.2
29/03:00pm 16.3 10.6 11.7 74 2.5 SW 33 61 18 33 1012.2 1012.0 1.0
29/02:58pm 17.5 11.9 10.1 62 3.9 WSW 30 50 16 27 1012.2 1012.0 1.0
29/02:30pm 17.5 11.1 9.4 59 4.2 SW 33 46 18 25 1012.1 1011.9 1.0
29/02:00pm 17.0 12.8 12.3 74 2.6 SW 26 35 14 19 1012.1 1011.9 1.0
29/01:51pm 16.7 11.5 12.8 78 2.2 SW 32 50 17 27 1012.0 1011.8 1.0
29/01:30pm 16.6 10.9 11.7 73 2.7 SW 33 44 18 24 1011.8 1011.6 1.0
29/01:00pm 15.1 7.2 12.6 85 1.4 SW 46 65 25 35 1011.8 1011.6 1.0
29/12:30pm 15.2 8.2 13.7 91 0.8 SW 43 72 23 39 1011.4 1011.2 1.0
29/12:09pm 16.1 9.2 13.9 87 1.2 WSW 43 69 23 37 1010.6 1010.4 0.4
29/12:07pm 16.4 10.3 14.1 86 1.3 WSW 39 57 21 31 1010.8 1010.6 0.4
29/12:00pm 18.4 12.8 14.5 78 2.3 W 37 54 20 29 1010.3 1010.1 0.0
29/11:59am 18.7 13.0 14.2 75 2.6 WNW 37 54 20 29 1010.3 1010.1 0.0
29/11:30am 21.6 16.1 13.5 60 4.7 WNW 35 48 19 26 1009.9 1009.7 0.0
29/11:00am 20.7 14.4 13.6 64 4.1 NW 39 52 21 28 1010.3 1010.1 0.0
29/10:32am 20.9 15.5 13.8 64 4.1 NW 35 54 19 29 1010.3 1010.1 0.0
29/10:30am 20.9 15.1 13.8 64 4.1 NW 37 54 20 29 1010.3 1010.1 0.0
29/10:00am 20.2 14.6 13.4 65 3.9 NW 35 52 19 28 1010.2 1010.0 0.0
29/09:30am 19.8 14.9 13.7 68 3.5 NW 32 48 17 26 1010.2 1010.0 0.0
29/09:00am 18.9 13.9 13.5 71 3.1 NW 32 46 17 25 1010.1 1009.9 0.0
29/08:30am 18.4 14.6 13.7 74 2.7 NW 26 37 14 20 1010.1 1009.9 0.0
29/08:00am 18.0 14.7 12.7 71 3.0 NW 22 32 12 17 1010.0 1009.8 0.0
29/07:30am 18.0 15.0 12.7 71 3.0 NW 20 35 11 19 1010.0 1009.8 0.0
29/07:00am 18.0 15.3 12.9 72 2.9 NW 19 26 10 14 1009.9 1009.7 0.0
29/06:30am 18.0 15.2 12.5 70 3.1 NW 19 28 10 15 1009.9 1009.7 0.0
29/06:00am 17.9 15.5 12.8 72 2.9 NW 17 24 9 13 1009.9 1009.7 0.0
29/05:30am 17.6 15.6 12.7 73 2.7 NW 15 22 8 12 1009.8 1009.6 0.0
29/05:00am 17.9 15.0 12.4 70 3.1 WNW 19 28 10 15 1010.0 1009.8 0.0
29/04:30am 17.6 16.8 13.9 79 2.1 WNW 11 17 6 9 1009.8 1009.6 0.0
29/04:00am 17.8 16.2 13.9 78 2.2 W 15 20 8 11 1010.1 1009.9 0.0
29/03:30am 17.2 15.1 12.3 73 2.7 WNW 15 20 8 11 1010.7 1010.5 0.0
29/03:00am 16.0 14.4 11.6 75 2.4 NW 11 15 6 8 1010.8 1010.6 0.0
29/02:30am 15.9 14.0 11.7 76 2.3 NW 13 15 7 8 1011.1 1010.9 0.0
29/02:00am 16.0 14.0 11.6 75 2.4 NW 13 17 7 9 1011.1 1010.9 0.0
29/01:30am 16.2 14.4 12.2 77 2.2 NW 13 17 7 9 1011.4 1011.2 0.0
29/01:00am 16.5 14.8 12.5 77 2.2 NW 13 19 7 10 1011.9 1011.7 0.0
29/12:30am 17.0 15.4 12.7 76 2.4 NW 13 19 7 10 1012.3 1012.1 0.0
29/12:00am 16.8 14.4 11.3 70 3.0 WNW 15 19 8 10 1012.6 1012.5 0.0
 
Date/Time
CDT
Temp
°C
App
Temp
°C
Dew
Point
°C
Rel
Hum
%
Delta-T
°C
Wind Press
QNH
hPa
Press
MSL
hPa
Rain since
9am
mm
Dir  Spd
km/h
Gust
km/h
Spd
kts
Gust
kts
28/11:30pm 16.8 14.7 11.1 69 3.1 NW 13 19 7 10 1012.7 1012.6 0.0
28/11:00pm 17.4 14.9 11.2 67 3.4 WNW 15 20 8 11 1012.9 1012.8 0.0
28/10:30pm 17.7 14.8 12.2 70 3.0 WNW 19 26 10 14 1013.0 1012.9 0.0
28/10:00pm 17.6 15.2 12.5 72 2.8 WNW 17 24 9 13 1013.0 1012.9 0.0
28/09:30pm 17.6 15.1 13.5 77 2.3 W 19 26 10 14 1013.1 1013.0 0.0
28/09:00pm 17.9 16.2 12.6 71 3.0 WNW 13 19 7 10 1013.2 1013.1 0.0
28/08:30pm 18.5 15.5 12.7 69 3.3 W 20 30 11 16 1013.0 1012.9 0.0
28/08:00pm 18.5 16.0 12.3 67 3.4 W 17 24 9 13 1012.7 1012.6 0.0
28/07:30pm 18.6 16.0 11.9 65 3.7 W 17 26 9 14 1012.7 1012.6 0.0
28/07:00pm 18.8 16.5 11.9 64 3.8 WNW 15 20 8 11 1012.7 1012.6 0.0
28/06:30pm 19.0 16.7 11.8 63 4.0 W 15 22 8 12 1012.6 1012.5 0.0
28/06:00pm 20.2 16.8 11.4 57 4.9 W 20 30 11 16 1012.7 1012.6 0.0
28/05:30pm 20.7 17.5 11.1 54 5.3 WSW 19 26 10 14 1012.8 1012.7 0.0
28/05:00pm 21.7 19.1 12.0 54 5.5 W 17 30 9 16 1013.0 1012.9 0.0
28/04:30pm 21.7 18.4 10.8 50 6.0 W 19 28 10 15 1013.3 1013.2 0.0
28/04:00pm 22.1 18.6 10.9 49 6.2 W 20 33 11 18 1013.3 1013.2 0.0
28/03:30pm 21.8 18.5 10.9 50 6.0 W 19 26 10 14 1013.6 1013.5 0.0
28/03:00pm 20.7 17.4 10.8 53 5.4 W 19 30 10 16 1013.8 1013.7 0.0
28/02:30pm 20.6 17.3 11.0 54 5.3 W 19 28 10 15 1013.9 1013.8 0.0
28/02:00pm 20.9 17.3 10.4 51 5.7 W 20 32 11 17 1014.2 1014.1 0.0
28/01:30pm 21.4 17.8 10.6 50 5.9 WNW 20 30 11 16 1014.4 1014.3 0.0
28/01:00pm 22.6 19.3 11.7 50 6.1 NW 20 33 11 18 1014.9 1014.8 0.0
28/12:30pm 21.6 18.0 10.4 49 6.1 W 20 28 11 15 1015.2 1015.1 0.0
28/12:00pm 21.8 19.2 10.6 49 6.1 WNW 15 28 8 15 1015.7 1015.6 0.0
28/11:30am 19.8 16.3 10.8 56 4.9 WNW 20 28 11 15 1015.9 1015.8 0.0
28/11:00am 20.1 16.9 11.3 57 4.8 W 19 26 10 14 1016.1 1016.0 0.0
28/10:30am 19.1 16.1 12.4 65 3.7 WNW 20 28 11 15 1016.1 1016.0 0.0
28/10:00am 19.4 16.4 11.9 62 4.2 WNW 19 24 10 13 1015.9 1015.8 0.0
28/09:30am 19.6 16.5 11.6 60 4.4 NW 19 26 10 14 1015.9 1015.8 0.0
28/09:00am 18.4 15.8 10.8 61 4.1 WNW 15 20 8 11 1015.8 1015.7 0.2

Other Formats:

Comma delimited format used in spreadsheet applications
http://www.bom.gov.au/fwo/IDS60801/IDS60801.95806.axf

JavaScript Object Notation format (JSON) in row-major order
http://www.bom.gov.au/fwo/IDS60801/IDS60801.95806.json